sensor_id;sensor_type;location;lat;lon;timestamp;pressure;altitude;pressure_sealevel;temperature;humidity
71793;BME280;59639;51.170;6.456;2022-08-06T00:02:06;101977.97;;;16.89;50.61
71793;BME280;59639;51.170;6.456;2022-08-06T00:04:31;101980.16;;;16.94;50.60
71793;BME280;59639;51.170;6.456;2022-08-06T00:06:57;101979.13;;;16.87;50.67
71793;BME280;59639;51.170;6.456;2022-08-06T00:09:22;101983.56;;;17.04;50.54
71793;BME280;59639;51.170;6.456;2022-08-06T00:11:48;101981.31;;;16.91;50.81
71793;BME280;59639;51.170;6.456;2022-08-06T00:14:13;101983.41;;;17.05;50.35
71793;BME280;59639;51.170;6.456;2022-08-06T00:16:39;101981.00;;;16.68;51.16
71793;BME280;59639;51.170;6.456;2022-08-06T00:19:05;101985.50;;;16.68;51.41
71793;BME280;59639;51.170;6.456;2022-08-06T00:21:30;101987.16;;;16.69;51.37
71793;BME280;59639;51.170;6.456;2022-08-06T00:23:56;101989.56;;;16.98;50.64
71793;BME280;59639;51.170;6.456;2022-08-06T00:26:21;101989.72;;;16.96;50.77
71793;BME280;59639;51.170;6.456;2022-08-06T00:28:49;101991.03;;;16.92;50.68
71793;BME280;59639;51.170;6.456;2022-08-06T00:31:14;101986.53;;;16.75;51.05
71793;BME280;59639;51.170;6.456;2022-08-06T00:33:40;101990.53;;;16.71;51.69
71793;BME280;59639;51.170;6.456;2022-08-06T00:36:07;101998.78;;;16.77;51.21
71793;BME280;59639;51.170;6.456;2022-08-06T00:38:33;101991.66;;;16.86;51.12
71793;BME280;59639;51.170;6.456;2022-08-06T00:40:59;101996.94;;;16.78;51.24
71793;BME280;59639;51.170;6.456;2022-08-06T00:43:25;101996.19;;;16.68;51.51
71793;BME280;59639;51.170;6.456;2022-08-06T00:45:50;101991.16;;;16.65;51.41
71793;BME280;59639;51.170;6.456;2022-08-06T00:48:16;101995.66;;;16.64;51.73
71793;BME280;59639;51.170;6.456;2022-08-06T00:50:41;101998.19;;;16.66;51.47
71793;BME280;59639;51.170;6.456;2022-08-06T00:53:06;102000.47;;;16.61;51.81
71793;BME280;59639;51.170;6.456;2022-08-06T00:55:32;101997.72;;;16.70;51.36
71793;BME280;59639;51.170;6.456;2022-08-06T00:57:58;102002.81;;;16.64;51.87
71793;BME280;59639;51.170;6.456;2022-08-06T01:00:24;102001.38;;;16.52;52.19
71793;BME280;59639;51.170;6.456;2022-08-06T01:02:49;101999.06;;;16.57;52.06
71793;BME280;59639;51.170;6.456;2022-08-06T01:05:14;102002.31;;;16.60;52.12
71793;BME280;59639;51.170;6.456;2022-08-06T01:07:40;102007.94;;;16.40;52.43
71793;BME280;59639;51.170;6.456;2022-08-06T01:10:06;102012.00;;;16.61;51.87
71793;BME280;59639;51.170;6.456;2022-08-06T01:12:31;102013.38;;;16.48;52.25
71793;BME280;59639;51.170;6.456;2022-08-06T01:14:56;102019.38;;;16.32;52.32
71793;BME280;59639;51.170;6.456;2022-08-06T01:17:28;102019.84;;;16.45;52.46
71793;BME280;59639;51.170;6.456;2022-08-06T01:25:51;102020.63;;;16.38;52.68
71793;BME280;59639;51.170;6.456;2022-08-06T01:28:25;102012.88;;;16.34;52.54
71793;BME280;59639;51.170;6.456;2022-08-06T01:30:56;102012.56;;;16.20;53.08
71793;BME280;59639;51.170;6.456;2022-08-06T01:33:29;102025.09;;;16.19;53.22
71793;BME280;59639;51.170;6.456;2022-08-06T01:35:59;102021.59;;;16.19;53.06
71793;BME280;59639;51.170;6.456;2022-08-06T01:38:37;102026.78;;;16.20;52.96
71793;BME280;59639;51.170;6.456;2022-08-06T01:41:06;102035.25;;;16.16;53.11
71793;BME280;59639;51.170;6.456;2022-08-06T01:43:34;102037.59;;;16.01;53.71
71793;BME280;59639;51.170;6.456;2022-08-06T01:46:00;102037.91;;;15.98;53.62
71793;BME280;59639;51.170;6.456;2022-08-06T01:48:27;102035.63;;;16.03;53.72
71793;BME280;59639;51.170;6.456;2022-08-06T01:50:58;102035.69;;;16.11;53.66
71793;BME280;59639;51.170;6.456;2022-08-06T01:53:30;102047.34;;;16.10;53.55
71793;BME280;59639;51.170;6.456;2022-08-06T01:55:58;102048.50;;;16.08;53.70
71793;BME280;59639;51.170;6.456;2022-08-06T01:58:28;102056.97;;;16.03;53.99
71793;BME280;59639;51.170;6.456;2022-08-06T02:00:54;102059.03;;;16.09;53.84
71793;BME280;59639;51.170;6.456;2022-08-06T02:03:46;102057.44;;;15.89;54.41
71793;BME280;59639;51.170;6.456;2022-08-06T02:06:15;102057.16;;;15.92;54.16
71793;BME280;59639;51.170;6.456;2022-08-06T02:08:43;102062.09;;;16.14;53.74
71793;BME280;59639;51.170;6.456;2022-08-06T02:11:10;102051.44;;;15.87;54.45
71793;BME280;59639;51.170;6.456;2022-08-06T02:13:37;102055.09;;;15.86;54.52
71793;BME280;59639;51.170;6.456;2022-08-06T02:16:04;102048.41;;;16.00;54.10
71793;BME280;59639;51.170;6.456;2022-08-06T02:18:34;102053.53;;;15.93;54.31
71793;BME280;59639;51.170;6.456;2022-08-06T02:21:03;102055.69;;;15.80;54.78
71793;BME280;59639;51.170;6.456;2022-08-06T02:23:31;102053.78;;;15.90;54.51
71793;BME280;59639;51.170;6.456;2022-08-06T02:25:57;102052.16;;;15.79;54.70
71793;BME280;59639;51.170;6.456;2022-08-06T02:28:24;102055.28;;;15.75;54.91
71793;BME280;59639;51.170;6.456;2022-08-06T02:30:53;102061.59;;;15.83;54.88
71793;BME280;59639;51.170;6.456;2022-08-06T02:33:20;102056.56;;;15.71;55.39
71793;BME280;59639;51.170;6.456;2022-08-06T02:35:50;102055.31;;;15.65;55.45
71793;BME280;59639;51.170;6.456;2022-08-06T02:40:57;102062.94;;;15.50;55.78
71793;BME280;59639;51.170;6.456;2022-08-06T02:43:35;102062.09;;;15.60;55.82
71793;BME280;59639;51.170;6.456;2022-08-06T02:46:17;102067.88;;;15.45;56.16
71793;BME280;59639;51.170;6.456;2022-08-06T02:49:01;102070.38;;;15.57;55.92
71793;BME280;59639;51.170;6.456;2022-08-06T02:51:36;102069.03;;;15.33;56.37
71793;BME280;59639;51.170;6.456;2022-08-06T02:54:06;102075.03;;;15.55;56.00
71793;BME280;59639;51.170;6.456;2022-08-06T02:56:37;102073.59;;;15.60;55.81
71793;BME280;59639;51.170;6.456;2022-08-06T02:59:04;102080.94;;;15.48;56.50
71793;BME280;59639;51.170;6.456;2022-08-06T03:01:38;102078.53;;;15.45;56.18
71793;BME280;59639;51.170;6.456;2022-08-06T03:04:06;102082.88;;;15.56;56.00
71793;BME280;59639;51.170;6.456;2022-08-06T03:06:35;102076.56;;;15.57;55.99
71793;BME280;59639;51.170;6.456;2022-08-06T03:09:03;102071.25;;;15.47;56.18
71793;BME280;59639;51.170;6.456;2022-08-06T03:11:31;102082.34;;;15.53;56.24
71793;BME280;59639;51.170;6.456;2022-08-06T03:14:00;102085.00;;;15.53;56.14
71793;BME280;59639;51.170;6.456;2022-08-06T03:16:34;102086.84;;;15.42;56.17
71793;BME280;59639;51.170;6.456;2022-08-06T03:19:00;102087.72;;;15.33;56.90
71793;BME280;59639;51.170;6.456;2022-08-06T03:21:27;102079.28;;;15.38;56.75
71793;BME280;59639;51.170;6.456;2022-08-06T03:23:54;102088.09;;;15.58;56.11
71793;BME280;59639;51.170;6.456;2022-08-06T03:26:21;102093.03;;;15.53;56.00
71793;BME280;59639;51.170;6.456;2022-08-06T03:28:49;102082.44;;;15.61;56.26
71793;BME280;59639;51.170;6.456;2022-08-06T03:31:15;102088.34;;;15.45;56.55
71793;BME280;59639;51.170;6.456;2022-08-06T03:33:41;102089.91;;;15.57;56.19
71793;BME280;59639;51.170;6.456;2022-08-06T03:36:09;102080.56;;;15.34;56.91
71793;BME280;59639;51.170;6.456;2022-08-06T03:38:49;102088.13;;;15.29;56.79
71793;BME280;59639;51.170;6.456;2022-08-06T03:41:16;102096.13;;;15.38;56.69
71793;BME280;59639;51.170;6.456;2022-08-06T03:43:42;102087.03;;;15.22;57.21
71793;BME280;59639;51.170;6.456;2022-08-06T03:46:08;102086.06;;;15.03;57.73
71793;BME280;59639;51.170;6.456;2022-08-06T03:48:38;102090.13;;;15.17;57.75
71793;BME280;59639;51.170;6.456;2022-08-06T03:51:17;102091.09;;;15.16;57.56
71793;BME280;59639;51.170;6.456;2022-08-06T03:53:45;102100.66;;;15.09;57.57
71793;BME280;59639;51.170;6.456;2022-08-06T03:56:20;102098.81;;;15.09;57.67
71793;BME280;59639;51.170;6.456;2022-08-06T03:58:49;102092.94;;;15.06;57.67
71793;BME280;59639;51.170;6.456;2022-08-06T04:01:21;102101.06;;;14.85;58.26
71793;BME280;59639;51.170;6.456;2022-08-06T04:03:48;102101.91;;;14.95;58.39
71793;BME280;59639;51.170;6.456;2022-08-06T04:06:17;102099.25;;;14.95;58.03
71793;BME280;59639;51.170;6.456;2022-08-06T04:08:44;102092.94;;;15.06;57.92
71793;BME280;59639;51.170;6.456;2022-08-06T04:11:11;102094.78;;;14.77;58.56
71793;BME280;59639;51.170;6.456;2022-08-06T04:13:37;102100.66;;;14.80;58.58
71793;BME280;59639;51.170;6.456;2022-08-06T04:16:04;102094.50;;;14.99;58.26
71793;BME280;59639;51.170;6.456;2022-08-06T04:18:35;102101.91;;;14.95;58.12
71793;BME280;59639;51.170;6.456;2022-08-06T04:21:03;102102.75;;;14.96;58.06
71793;BME280;59639;51.170;6.456;2022-08-06T04:23:30;102100.94;;;14.87;58.35
71793;BME280;59639;51.170;6.456;2022-08-06T04:25:57;102104.59;;;14.86;58.49
71793;BME280;59639;51.170;6.456;2022-08-06T04:28:24;102104.59;;;14.95;58.34
71793;BME280;59639;51.170;6.456;2022-08-06T04:30:53;102109.78;;;14.87;58.67
71793;BME280;59639;51.170;6.456;2022-08-06T04:33:21;102115.00;;;14.89;58.75
71793;BME280;59639;51.170;6.456;2022-08-06T04:35:47;102115.41;;;14.94;58.14
71793;BME280;59639;51.170;6.456;2022-08-06T04:38:15;102108.09;;;15.05;58.07
71793;BME280;59639;51.170;6.456;2022-08-06T04:40:41;102119.88;;;15.03;58.00
71793;BME280;59639;51.170;6.456;2022-08-06T04:43:09;102111.59;;;15.16;57.90
71793;BME280;59639;51.170;6.456;2022-08-06T04:45:37;102119.59;;;15.06;58.08
71793;BME280;59639;51.170;6.456;2022-08-06T04:48:06;102122.38;;;15.04;58.16
71793;BME280;59639;51.170;6.456;2022-08-06T04:50:32;102122.97;;;14.98;58.28
71793;BME280;59639;51.170;6.456;2022-08-06T04:53:11;102133.06;;;15.04;58.20
71793;BME280;59639;51.170;6.456;2022-08-06T04:55:38;102137.41;;;15.15;57.88
71793;BME280;59639;51.170;6.456;2022-08-06T04:58:06;102135.31;;;15.09;58.29
71793;BME280;59639;51.170;6.456;2022-08-06T05:00:33;102136.56;;;15.15;57.96
71793;BME280;59639;51.170;6.456;2022-08-06T05:02:59;102134.63;;;15.07;58.35
71793;BME280;59639;51.170;6.456;2022-08-06T05:05:24;102143.88;;;15.13;58.29
71793;BME280;59639;51.170;6.456;2022-08-06T05:07:53;102145.56;;;15.14;58.25
71793;BME280;59639;51.170;6.456;2022-08-06T05:10:20;102147.81;;;15.18;58.00
71793;BME280;59639;51.170;6.456;2022-08-06T05:12:49;102152.72;;;15.23;58.16
71793;BME280;59639;51.170;6.456;2022-08-06T05:15:24;102153.25;;;15.26;57.90
71793;BME280;59639;51.170;6.456;2022-08-06T05:17:57;102160.84;;;15.21;58.23
71793;BME280;59639;51.170;6.456;2022-08-06T05:20:23;102154.94;;;15.27;58.17
71793;BME280;59639;51.170;6.456;2022-08-06T05:22:53;102154.63;;;15.40;57.68
71793;BME280;59639;51.170;6.456;2022-08-06T05:25:20;102154.78;;;15.38;57.68
71793;BME280;59639;51.170;6.456;2022-08-06T05:27:45;102166.72;;;15.34;58.20
71793;BME280;59639;51.170;6.456;2022-08-06T05:30:11;102169.53;;;15.52;57.61
71793;BME280;59639;51.170;6.456;2022-08-06T05:32:46;102163.34;;;15.52;57.57
71793;BME280;59639;51.170;6.456;2022-08-06T05:35:13;102162.91;;;15.46;57.80
71793;BME280;59639;51.170;6.456;2022-08-06T05:37:39;102177.09;;;15.47;57.73
71793;BME280;59639;51.170;6.456;2022-08-06T05:40:05;102168.25;;;15.66;57.32
71793;BME280;59639;51.170;6.456;2022-08-06T05:42:31;102174.97;;;15.50;57.99
71793;BME280;59639;51.170;6.456;2022-08-06T05:44:56;102176.38;;;15.74;57.36
71793;BME280;59639;51.170;6.456;2022-08-06T05:47:25;102176.13;;;15.67;57.75
71793;BME280;59639;51.170;6.456;2022-08-06T05:50:02;102183.19;;;15.96;57.38
71793;BME280;59639;51.170;6.456;2022-08-06T05:52:36;102186.88;;;15.85;57.26
71793;BME280;59639;51.170;6.456;2022-08-06T05:55:16;102187.06;;;16.11;56.74
71793;BME280;59639;51.170;6.456;2022-08-06T05:58:06;102188.94;;;16.01;56.73
71793;BME280;59639;51.170;6.456;2022-08-06T06:00:35;102188.84;;;16.20;56.44
71793;BME280;59639;51.170;6.456;2022-08-06T06:03:07;102188.69;;;15.84;57.23
71793;BME280;59639;51.170;6.456;2022-08-06T06:05:34;102180.25;;;15.89;57.35
71793;BME280;59639;51.170;6.456;2022-08-06T06:08:00;102188.00;;;16.19;56.76
71793;BME280;59639;51.170;6.456;2022-08-06T06:10:26;102191.69;;;16.18;56.58
71793;BME280;59639;51.170;6.456;2022-08-06T06:12:54;102190.41;;;16.22;56.84
71793;BME280;59639;51.170;6.456;2022-08-06T06:15:19;102191.03;;;16.34;56.43
71793;BME280;59639;51.170;6.456;2022-08-06T06:17:51;102190.75;;;16.64;55.82
71793;BME280;59639;51.170;6.456;2022-08-06T06:20:36;102191.47;;;16.84;55.24
71793;BME280;59639;51.170;6.456;2022-08-06T06:23:09;102187.44;;;16.98;55.01
71793;BME280;59639;51.170;6.456;2022-08-06T06:28:35;102201.66;;;16.98;55.02
71793;BME280;59639;51.170;6.456;2022-08-06T06:31:34;102212.97;;;16.92;55.20
71793;BME280;59639;51.170;6.456;2022-08-06T06:39:14;102207.88;;;16.71;55.51
71793;BME280;59639;51.170;6.456;2022-08-06T06:41:53;102203.53;;;16.70;55.47
71793;BME280;59639;51.170;6.456;2022-08-06T06:44:46;102204.44;;;16.61;55.73
71793;BME280;59639;51.170;6.456;2022-08-06T06:47:24;102203.41;;;17.07;54.57
71793;BME280;59639;51.170;6.456;2022-08-06T06:49:56;102194.91;;;17.30;53.84
71793;BME280;59639;51.170;6.456;2022-08-06T06:52:40;102201.78;;;17.14;54.14
71793;BME280;59639;51.170;6.456;2022-08-06T06:57:41;102214.78;;;17.09;54.32
71793;BME280;59639;51.170;6.456;2022-08-06T07:00:08;102222.94;;;16.90;54.62
71793;BME280;59639;51.170;6.456;2022-08-06T07:02:37;102219.69;;;16.96;55.29
71793;BME280;59639;51.170;6.456;2022-08-06T07:05:06;102214.47;;;17.30;53.95
71793;BME280;59639;51.170;6.456;2022-08-06T07:07:37;102219.19;;;17.54;53.14
71793;BME280;59639;51.170;6.456;2022-08-06T07:10:04;102221.44;;;17.84;52.51
71793;BME280;59639;51.170;6.456;2022-08-06T07:12:32;102219.50;;;17.94;52.46
71793;BME280;59639;51.170;6.456;2022-08-06T07:15:01;102220.59;;;17.84;52.34
71793;BME280;59639;51.170;6.456;2022-08-06T07:17:29;102225.19;;;18.17;50.87
71793;BME280;59639;51.170;6.456;2022-08-06T07:19:58;102230.09;;;18.30;50.79
71793;BME280;59639;51.170;6.456;2022-08-06T07:22:26;102235.41;;;18.22;50.64
71793;BME280;59639;51.170;6.456;2022-08-06T07:24:55;102228.22;;;18.22;50.93
71793;BME280;59639;51.170;6.456;2022-08-06T07:27:22;102229.72;;;18.25;50.92
71793;BME280;59639;51.170;6.456;2022-08-06T07:29:49;102229.22;;;18.55;50.27
71793;BME280;59639;51.170;6.456;2022-08-06T07:32:15;102236.41;;;18.21;50.66
71793;BME280;59639;51.170;6.456;2022-08-06T07:34:41;102237.13;;;18.31;50.47
71793;BME280;59639;51.170;6.456;2022-08-06T07:37:07;102233.78;;;18.63;50.05
71793;BME280;59639;51.170;6.456;2022-08-06T07:39:37;102244.25;;;18.90;49.24
71793;BME280;59639;51.170;6.456;2022-08-06T07:42:07;102244.97;;;19.24;48.41
71793;BME280;59639;51.170;6.456;2022-08-06T07:44:39;102247.91;;;18.81;48.60
71793;BME280;59639;51.170;6.456;2022-08-06T07:47:05;102246.22;;;19.46;47.14
71793;BME280;59639;51.170;6.456;2022-08-06T07:49:36;102243.88;;;19.51;46.16
71793;BME280;59639;51.170;6.456;2022-08-06T07:52:04;102248.19;;;20.01;45.48
71793;BME280;59639;51.170;6.456;2022-08-06T07:54:30;102244.03;;;21.07;42.53
71793;BME280;59639;51.170;6.456;2022-08-06T07:56:57;102251.03;;;23.93;35.88
71793;BME280;59639;51.170;6.456;2022-08-06T07:59:23;102252.06;;;25.22;32.81
71793;BME280;59639;51.170;6.456;2022-08-06T08:01:50;102243.13;;;26.00;30.35
71793;BME280;59639;51.170;6.456;2022-08-06T08:04:16;102244.78;;;24.62;33.37
71793;BME280;59639;51.170;6.456;2022-08-06T08:07:01;102241.06;;;26.09;31.34
71793;BME280;59639;51.170;6.456;2022-08-06T08:09:28;102247.06;;;26.11;31.32
71793;BME280;59639;51.170;6.456;2022-08-06T08:11:54;102244.44;;;27.38;29.42
71793;BME280;59639;51.170;6.456;2022-08-06T08:14:21;102238.94;;;27.51;29.04
71793;BME280;59639;51.170;6.456;2022-08-06T08:16:48;102251.09;;;27.73;27.99
71793;BME280;59639;51.170;6.456;2022-08-06T08:19:31;102243.28;;;29.04;26.26
71793;BME280;59639;51.170;6.456;2022-08-06T08:22:00;102247.19;;;28.97;26.18
71793;BME280;59639;51.170;6.456;2022-08-06T08:24:27;102243.84;;;28.95;26.32
71793;BME280;59639;51.170;6.456;2022-08-06T08:26:54;102244.75;;;29.48;25.92
71793;BME280;59639;51.170;6.456;2022-08-06T08:29:20;102248.75;;;28.20;26.99
71793;BME280;59639;51.170;6.456;2022-08-06T08:31:45;102245.38;;;28.91;26.44
71793;BME280;59639;51.170;6.456;2022-08-06T08:34:11;102244.06;;;29.88;25.06
71793;BME280;59639;51.170;6.456;2022-08-06T08:36:37;102240.94;;;30.31;24.53
71793;BME280;59639;51.170;6.456;2022-08-06T08:39:03;102239.84;;;28.49;26.41
71793;BME280;59639;51.170;6.456;2022-08-06T08:41:32;102238.38;;;28.83;26.31
71793;BME280;59639;51.170;6.456;2022-08-06T08:44:06;102237.00;;;27.58;27.19
71793;BME280;59639;51.170;6.456;2022-08-06T08:46:37;102233.75;;;28.65;25.99
71793;BME280;59639;51.170;6.456;2022-08-06T08:49:04;102242.06;;;28.71;25.95
71793;BME280;59639;51.170;6.456;2022-08-06T08:51:37;102232.88;;;28.72;25.63
71793;BME280;59639;51.170;6.456;2022-08-06T08:54:06;102234.88;;;27.60;26.64
71793;BME280;59639;51.170;6.456;2022-08-06T08:56:33;102224.41;;;27.32;26.88
71793;BME280;59639;51.170;6.456;2022-08-06T08:59:00;102238.59;;;29.53;24.56
71793;BME280;59639;51.170;6.456;2022-08-06T09:01:26;102239.59;;;28.69;24.33
71793;BME280;59639;51.170;6.456;2022-08-06T09:03:52;102233.91;;;29.00;24.40
71793;BME280;59639;51.170;6.456;2022-08-06T09:06:18;102245.22;;;29.57;22.17
71793;BME280;59639;51.170;6.456;2022-08-06T09:08:44;102230.16;;;28.53;24.06
71793;BME280;59639;51.170;6.456;2022-08-06T09:11:12;102238.59;;;30.00;22.45
71793;BME280;59639;51.170;6.456;2022-08-06T09:13:37;102235.66;;;30.01;21.77
71793;BME280;59639;51.170;6.456;2022-08-06T09:16:03;102242.53;;;29.92;22.19
71793;BME280;59639;51.170;6.456;2022-08-06T09:18:28;102244.13;;;29.35;23.95
71793;BME280;59639;51.170;6.456;2022-08-06T09:20:54;102238.47;;;29.48;23.43
71793;BME280;59639;51.170;6.456;2022-08-06T09:23:20;102240.38;;;30.17;23.44
71793;BME280;59639;51.170;6.456;2022-08-06T09:25:46;102237.63;;;30.69;22.12
71793;BME280;59639;51.170;6.456;2022-08-06T09:31:08;102244.44;;;29.91;23.02
71793;BME280;59639;51.170;6.456;2022-08-06T09:33:39;102234.81;;;30.92;21.88
71793;BME280;59639;51.170;6.456;2022-08-06T09:36:10;102243.44;;;31.01;21.11
71793;BME280;59639;51.170;6.456;2022-08-06T09:38:54;102238.81;;;30.21;22.26
71793;BME280;59639;51.170;6.456;2022-08-06T09:41:22;102242.16;;;29.12;23.36
71793;BME280;59639;51.170;6.456;2022-08-06T09:43:50;102239.06;;;28.79;23.64
71793;BME280;59639;51.170;6.456;2022-08-06T09:46:17;102237.78;;;28.27;24.60
71793;BME280;59639;51.170;6.456;2022-08-06T09:48:57;102242.34;;;27.65;25.37
71793;BME280;59639;51.170;6.456;2022-08-06T09:51:23;102242.28;;;26.06;27.53
71793;BME280;59639;51.170;6.456;2022-08-06T09:56:18;102246.28;;;25.38;29.21
71793;BME280;59639;51.170;6.456;2022-08-06T09:58:44;102244.16;;;26.12;28.51
71793;BME280;59639;51.170;6.456;2022-08-06T10:01:16;102239.56;;;26.13;27.91
71793;BME280;59639;51.170;6.456;2022-08-06T10:03:41;102241.69;;;25.39;28.95
71793;BME280;59639;51.170;6.456;2022-08-06T10:06:25;102238.81;;;25.60;28.91
71793;BME280;59639;51.170;6.456;2022-08-06T10:09:05;102235.38;;;26.30;28.15
71793;BME280;59639;51.170;6.456;2022-08-06T10:11:36;102242.38;;;27.02;26.62
71793;BME280;59639;51.170;6.456;2022-08-06T10:14:02;102247.19;;;26.55;26.82
71793;BME280;59639;51.170;6.456;2022-08-06T10:16:28;102247.69;;;26.26;27.66
71793;BME280;59639;51.170;6.456;2022-08-06T10:18:56;102242.47;;;27.76;25.54
71793;BME280;59639;51.170;6.456;2022-08-06T10:21:33;102247.13;;;27.45;25.97
71793;BME280;59639;51.170;6.456;2022-08-06T10:24:01;102236.41;;;26.16;28.47
71793;BME280;59639;51.170;6.456;2022-08-06T10:26:30;102248.81;;;25.59;29.65
71793;BME280;59639;51.170;6.456;2022-08-06T10:29:06;102243.34;;;24.59;30.77
71793;BME280;59639;51.170;6.456;2022-08-06T10:31:33;102236.19;;;24.93;30.67
71793;BME280;59639;51.170;6.456;2022-08-06T10:34:04;102245.22;;;25.33;29.44
71793;BME280;59639;51.170;6.456;2022-08-06T10:36:36;102235.06;;;27.03;26.25
71793;BME280;59639;51.170;6.456;2022-08-06T10:39:04;102240.88;;;27.69;25.92
71793;BME280;59639;51.170;6.456;2022-08-06T10:41:30;102236.22;;;29.15;24.43
71793;BME280;59639;51.170;6.456;2022-08-06T10:43:56;102237.47;;;29.01;23.28
71793;BME280;59639;51.170;6.456;2022-08-06T10:46:23;102228.47;;;27.23;24.83
71793;BME280;59639;51.170;6.456;2022-08-06T10:48:48;102226.38;;;27.75;25.35
71793;BME280;59639;51.170;6.456;2022-08-06T10:51:14;102227.19;;;27.75;24.56
71793;BME280;59639;51.170;6.456;2022-08-06T10:53:43;102220.41;;;26.66;25.87
71793;BME280;59639;51.170;6.456;2022-08-06T10:56:12;102227.13;;;26.56;26.05
71793;BME280;59639;51.170;6.456;2022-08-06T10:58:38;102218.31;;;26.03;27.58
71793;BME280;59639;51.170;6.456;2022-08-06T11:01:07;102230.66;;;25.40;28.46
71793;BME280;59639;51.170;6.456;2022-08-06T11:03:55;102222.72;;;25.25;28.81
71793;BME280;59639;51.170;6.456;2022-08-06T11:15:08;102210.56;;;24.07;30.20
71793;BME280;59639;51.170;6.456;2022-08-06T11:17:51;102216.09;;;24.74;29.92
71793;BME280;59639;51.170;6.456;2022-08-06T11:23:21;102218.53;;;24.49;30.81
71793;BME280;59639;51.170;6.456;2022-08-06T11:28:57;102212.38;;;24.27;30.39
71793;BME280;59639;51.170;6.456;2022-08-06T11:31:06;102207.84;;;24.41;30.60
71793;BME280;59639;51.170;6.456;2022-08-06T11:35:59;102206.78;;;24.29;29.97
71793;BME280;59639;51.170;6.456;2022-08-06T11:38:59;102205.38;;;24.12;30.63
71793;BME280;59639;51.170;6.456;2022-08-06T11:41:27;102204.63;;;23.62;31.45
71793;BME280;59639;51.170;6.456;2022-08-06T11:49:41;102199.38;;;24.51;30.54
71793;BME280;59639;51.170;6.456;2022-08-06T11:52:08;102203.81;;;24.78;29.63
71793;BME280;59639;51.170;6.456;2022-08-06T11:54:59;102197.84;;;24.35;30.51
71793;BME280;59639;51.170;6.456;2022-08-06T11:57:25;102196.75;;;24.23;30.12
71793;BME280;59639;51.170;6.456;2022-08-06T12:07:44;102191.38;;;23.95;30.41
71793;BME280;59639;51.170;6.456;2022-08-06T12:10:12;102197.66;;;24.43;30.45
71793;BME280;59639;51.170;6.456;2022-08-06T12:20:33;102188.44;;;23.90;30.22
71793;BME280;59639;51.170;6.456;2022-08-06T12:22:59;102183.50;;;24.07;30.20
71793;BME280;59639;51.170;6.456;2022-08-06T12:25:32;102183.94;;;24.44;30.51
71793;BME280;59639;51.170;6.456;2022-08-06T12:27:58;102177.47;;;25.00;29.91
71793;BME280;59639;51.170;6.456;2022-08-06T12:30:24;102183.19;;;24.64;29.71
71793;BME280;59639;51.170;6.456;2022-08-06T12:32:59;102172.16;;;23.83;30.65
71793;BME280;59639;51.170;6.456;2022-08-06T12:35:25;102175.75;;;23.90;31.55
71793;BME280;59639;51.170;6.456;2022-08-06T12:37:50;102176.91;;;24.50;30.61
71793;BME280;59639;51.170;6.456;2022-08-06T12:40:17;102173.53;;;24.07;30.30
71793;BME280;59639;51.170;6.456;2022-08-06T12:42:50;102172.69;;;24.07;30.65
71793;BME280;59639;51.170;6.456;2022-08-06T12:45:29;102165.00;;;23.69;30.83
71793;BME280;59639;51.170;6.456;2022-08-06T12:47:59;102170.44;;;24.10;30.55
71793;BME280;59639;51.170;6.456;2022-08-06T12:50:25;102163.88;;;23.91;30.22
71793;BME280;59639;51.170;6.456;2022-08-06T12:53:09;102169.94;;;24.89;28.98
71793;BME280;59639;51.170;6.456;2022-08-06T12:58:16;102157.38;;;24.81;29.15
71793;BME280;59639;51.170;6.456;2022-08-06T13:00:46;102161.94;;;24.67;28.76
71793;BME280;59639;51.170;6.456;2022-08-06T13:03:13;102160.16;;;23.92;30.42
71793;BME280;59639;51.170;6.456;2022-08-06T13:05:41;102162.25;;;23.41;31.16
71793;BME280;59639;51.170;6.456;2022-08-06T13:08:09;102154.53;;;23.38;31.55
71793;BME280;59639;51.170;6.456;2022-08-06T13:10:34;102154.97;;;23.42;31.46
71793;BME280;59639;51.170;6.456;2022-08-06T13:13:03;102156.16;;;23.88;30.98
71793;BME280;59639;51.170;6.456;2022-08-06T13:15:30;102159.81;;;23.46;31.10
71793;BME280;59639;51.170;6.456;2022-08-06T13:18:17;102153.16;;;23.70;31.05
71793;BME280;59639;51.170;6.456;2022-08-06T13:20:47;102153.09;;;23.64;31.32
71793;BME280;59639;51.170;6.456;2022-08-06T13:23:15;102151.19;;;23.36;30.80
71793;BME280;59639;51.170;6.456;2022-08-06T13:25:51;102149.41;;;23.22;31.39
71793;BME280;59639;51.170;6.456;2022-08-06T13:28:19;102153.13;;;23.42;31.71
71793;BME280;59639;51.170;6.456;2022-08-06T13:30:46;102149.75;;;23.34;30.90
71793;BME280;59639;51.170;6.456;2022-08-06T13:33:18;102146.63;;;23.37;31.07
71793;BME280;59639;51.170;6.456;2022-08-06T13:35:44;102139.28;;;23.52;31.19
71793;BME280;59639;51.170;6.456;2022-08-06T13:38:10;102133.88;;;23.80;31.14
71793;BME280;59639;51.170;6.456;2022-08-06T13:40:44;102134.88;;;23.44;31.11
71793;BME280;59639;51.170;6.456;2022-08-06T13:43:10;102139.63;;;24.11;30.19
71793;BME280;59639;51.170;6.456;2022-08-06T13:45:35;102137.44;;;24.21;29.76
71793;BME280;59639;51.170;6.456;2022-08-06T13:48:11;102128.19;;;24.50;29.89
71793;BME280;59639;51.170;6.456;2022-08-06T13:50:39;102130.13;;;24.82;28.61
71793;BME280;59639;51.170;6.456;2022-08-06T13:53:06;102119.19;;;24.43;29.04
71793;BME280;59639;51.170;6.456;2022-08-06T13:55:33;102109.53;;;25.01;28.88
71793;BME280;59639;51.170;6.456;2022-08-06T13:57:59;102111.84;;;25.24;27.90
71793;BME280;59639;51.170;6.456;2022-08-06T14:00:25;102114.72;;;25.62;28.01
71793;BME280;59639;51.170;6.456;2022-08-06T14:02:51;102104.88;;;25.81;27.40
71793;BME280;59639;51.170;6.456;2022-08-06T14:05:17;102100.19;;;26.07;26.76
71793;BME280;59639;51.170;6.456;2022-08-06T14:07:42;102098.59;;;26.44;26.49